Time;durP1;ratioP1;P1;durP2;ratioP2;P2;SDS_P1;SDS_P2;PMS_P1;PMS_P2;Temp;Humidity;BMP_temperature;BMP_pressure;BME280_temperature;BME280_humidity;BME280_pressure;Samples;Min_cycle;Max_cycle;Signal;HPM_P1;HPM_P2
2021/10/17 00:01:34;;;;;;;0.98;0.85;;;;;;;7.24;61.60;100897.00;6312465;28;20238;-72
2021/10/17 00:04:39;;;;;;;2.13;0.90;;;;;;;7.25;62.26;100894.06;6311209;28;20478;-72
2021/10/17 00:07:45;;;;;;;0.75;0.75;;;;;;;7.19;63.96;100899.44;6312430;28;20195;-71
2021/10/17 00:10:50;;;;;;;0.80;0.80;;;;;;;7.17;63.14;100902.31;6311177;28;20399;-72
2021/10/17 00:13:54;;;;;;;0.60;0.60;;;;;;;7.01;64.26;100902.56;6312026;28;20207;-72
2021/10/17 00:16:59;;;;;;;0.87;0.77;;;;;;;6.94;62.78;100907.09;6311146;28;20529;-73
2021/10/17 00:20:04;;;;;;;0.77;0.77;;;;;;;6.85;65.00;100906.38;6310263;28;20498;-72
2021/10/17 00:23:10;;;;;;;0.80;0.80;;;;;;;7.01;63.14;100913.41;6311009;28;20484;-72
2021/10/17 00:26:14;;;;;;;0.70;0.70;;;;;;;7.03;63.16;100927.66;6311073;28;20187;-73
2021/10/17 00:29:20;;;;;;;0.60;0.60;;;;;;;7.01;65.32;100923.44;6294935;28;20187;-72
2021/10/17 00:32:25;;;;;;;0.70;0.63;;;;;;;6.97;65.11;100927.56;6293951;28;20275;-72
2021/10/17 00:35:29;;;;;;;0.97;0.90;;;;;;;6.96;65.62;100937.56;6312237;28;20183;-72
2021/10/17 00:38:35;;;;;;;3.10;0.60;;;;;;;6.78;64.48;100939.84;6311337;28;20230;-72
2021/10/17 00:41:40;;;;;;;0.70;0.70;;;;;;;6.86;62.25;100932.47;6311419;28;20222;-72
2021/10/17 00:44:45;;;;;;;0.80;0.80;;;;;;;6.85;64.21;100929.94;6311768;28;20223;-72
2021/10/17 00:47:50;;;;;;;2.27;0.83;;;;;;;6.85;61.42;100936.22;6311633;28;20187;-71
2021/10/17 00:50:55;;;;;;;1.20;0.70;;;;;;;6.74;65.29;100942.13;6292940;28;20415;-72
2021/10/17 00:54:00;;;;;;;1.37;0.90;;;;;;;6.75;64.07;100940.25;6309300;28;20252;-72
2021/10/17 00:57:05;;;;;;;0.77;0.77;;;;;;;6.76;63.79;100931.06;6311234;28;20262;-72
2021/10/17 01:00:12;;;;;;;0.63;0.63;;;;;;;6.72;66.04;100941.47;6294446;28;20210;-71
2021/10/17 01:03:18;;;;;;;0.60;0.60;;;;;;;6.82;64.50;100936.59;6312130;28;20291;-71
2021/10/17 01:06:23;;;;;;;1.03;0.70;;;;;;;6.87;64.50;100938.72;6292738;28;20203;-71
2021/10/17 01:09:28;;;;;;;3.00;0.80;;;;;;;6.81;65.64;100944.91;6311747;28;20268;-72
2021/10/17 01:12:33;;;;;;;0.70;0.70;;;;;;;6.75;66.00;100934.84;6309875;28;20292;-72
2021/10/17 01:15:38;;;;;;;0.57;0.57;;;;;;;6.75;65.88;100946.50;6293667;28;20315;-72
2021/10/17 01:18:42;;;;;;;2.03;1.33;;;;;;;6.58;65.59;100939.63;6311293;28;20187;-71
2021/10/17 01:21:52;;;;;;;0.70;0.70;;;;;;;6.46;67.83;100953.84;6293285;28;20207;-71
2021/10/17 01:24:57;;;;;;;3.00;0.73;;;;;;;6.49;68.14;100946.19;6293595;28;20217;-71
2021/10/17 01:28:02;;;;;;;1.70;0.70;;;;;;;6.36;67.66;100939.72;6292468;28;20442;-71
2021/10/17 01:31:06;;;;;;;0.93;0.93;;;;;;;6.32;69.04;100948.22;6294868;28;20282;-71
2021/10/17 01:34:12;;;;;;;0.70;0.70;;;;;;;6.32;68.24;100940.09;6315522;28;20213;-71
2021/10/17 01:37:18;;;;;;;1.43;0.90;;;;;;;6.27;68.02;100953.34;6314202;28;20273;-72
2021/10/17 01:40:23;;;;;;;1.47;0.90;;;;;;;6.36;67.74;100950.56;6315463;28;20218;-71
2021/10/17 01:43:29;;;;;;;1.00;1.00;;;;;;;6.45;65.74;100946.72;6296992;28;20214;-71
2021/10/17 01:46:44;;;;;;;4.23;1.00;;;;;;;6.21;66.67;100948.69;6313661;28;20524;-71
2021/10/17 01:49:48;;;;;;;1.60;0.97;;;;;;;6.23;67.46;100951.22;6297110;28;20513;-72
2021/10/17 01:52:56;;;;;;;0.80;0.80;;;;;;;6.19;66.94;100950.72;6315172;28;20218;-72
2021/10/17 01:56:01;;;;;;;1.00;0.90;;;;;;;6.16;67.86;100951.09;6314210;28;20308;-71
2021/10/17 01:59:09;;;;;;;2.40;0.90;;;;;;;6.02;68.23;100962.78;6313282;28;20405;-71
2021/10/17 02:02:31;;;;;;;3.40;1.07;;;;;;;6.14;67.58;100969.41;6295839;28;20292;-71
2021/10/17 02:05:35;;;;;;;1.53;1.00;;;;;;;6.15;66.03;100965.69;6297115;28;20241;-72
2021/10/17 02:08:41;;;;;;;0.90;0.90;;;;;;;6.04;67.15;100968.00;6296809;28;20202;-72
2021/10/17 02:11:45;;;;;;;0.90;0.90;;;;;;;6.15;67.76;100964.84;6296745;28;20199;-72
2021/10/17 02:14:51;;;;;;;1.47;1.10;;;;;;;6.21;66.34;100959.50;6295979;28;20248;-71
2021/10/17 02:17:58;;;;;;;0.77;0.77;;;;;;;6.02;66.31;100970.91;6296252;28;20494;-72
2021/10/17 02:21:08;;;;;;;0.90;0.90;;;;;;;6.00;66.13;100970.25;6296691;28;20237;-72
2021/10/17 02:24:14;;;;;;;1.00;1.00;;;;;;;5.97;66.70;100959.78;6314698;28;20259;-71
2021/10/17 02:27:19;;;;;;;1.50;0.80;;;;;;;5.91;67.84;100968.63;6312697;28;20401;-71
2021/10/17 02:30:28;;;;;;;0.80;0.80;;;;;;;5.90;69.04;100966.97;6296571;28;20281;-72
2021/10/17 02:33:47;;;;;;;0.80;0.80;;;;;;;5.97;67.88;100970.63;6296024;28;20464;-72
2021/10/17 02:36:51;;;;;;;0.70;0.70;;;;;;;5.94;67.14;100984.50;6295668;28;20202;-72
2021/10/17 02:39:58;;;;;;;0.80;0.80;;;;;;;6.10;66.53;100973.53;6295623;28;20209;-72
2021/10/17 02:43:03;;;;;;;0.77;0.77;;;;;;;6.13;66.34;100981.28;6312118;28;20202;-72
2021/10/17 02:46:10;;;;;;;1.03;0.80;;;;;;;6.12;67.47;100971.47;6313161;28;20193;-71
2021/10/17 02:49:16;;;;;;;0.80;0.80;;;;;;;6.25;66.44;100987.94;6295730;28;20202;-71
2021/10/17 02:52:22;;;;;;;0.80;0.80;;;;;;;6.29;66.26;100983.81;6312346;28;20202;-72
2021/10/17 02:55:28;;;;;;;0.90;0.90;;;;;;;6.36;67.51;100993.91;6295700;28;20225;-71
2021/10/17 02:58:32;;;;;;;0.90;0.90;;;;;;;6.42;67.34;100993.19;6296336;28;20209;-72
2021/10/17 03:01:38;;;;;;;0.80;0.80;;;;;;;6.33;64.92;100995.13;6294968;28;20242;-72
2021/10/17 03:04:43;;;;;;;1.17;0.87;;;;;;;6.51;64.50;100994.75;6295982;28;20214;-71
2021/10/17 03:07:48;;;;;;;0.90;0.90;;;;;;;6.40;66.89;100995.22;6295315;28;20206;-71
2021/10/17 03:10:53;;;;;;;1.43;0.70;;;;;;;6.53;64.58;101000.84;6294942;28;20202;-71
2021/10/17 03:13:59;;;;;;;0.80;0.80;;;;;;;6.50;64.78;100996.63;6294789;28;20228;-71
2021/10/17 03:17:06;;;;;;;1.60;0.80;;;;;;;6.44;64.74;100993.84;6295114;28;20230;-71
2021/10/17 03:20:15;;;;;;;1.00;1.00;;;;;;;6.60;66.41;100991.75;6294600;28;20560;-71
2021/10/17 03:23:22;;;;;;;0.87;0.87;;;;;;;6.58;66.26;100992.97;6295434;28;20264;-71
2021/10/17 03:26:28;;;;;;;1.53;1.00;;;;;;;6.55;66.35;100990.66;6294175;28;20570;-71
2021/10/17 03:29:32;;;;;;;1.00;1.00;;;;;;;6.46;67.37;100994.47;6312838;28;20218;-71
2021/10/17 03:32:39;;;;;;;1.37;0.87;;;;;;;6.52;68.19;100991.03;6310699;28;20207;-71
2021/10/17 03:35:43;;;;;;;2.10;0.90;;;;;;;6.50;68.33;100995.78;6312371;28;20218;-71
2021/10/17 03:38:49;;;;;;;1.20;0.80;;;;;;;6.59;69.02;100989.25;6294909;28;20202;-72
2021/10/17 03:42:02;;;;;;;1.90;0.73;;;;;;;6.59;68.83;100994.69;6294139;28;20209;-72
2021/10/17 03:45:09;;;;;;;1.17;1.10;;;;;;;6.63;66.53;100990.56;6311893;28;20276;-72
2021/10/17 03:48:15;;;;;;;1.20;0.87;;;;;;;6.58;68.66;100979.44;6295354;28;20229;-72
2021/10/17 03:51:20;;;;;;;0.80;0.80;;;;;;;6.69;67.85;100984.38;6295335;28;20199;-72
2021/10/17 03:54:25;;;;;;;1.07;0.90;;;;;;;6.65;65.03;100999.38;6294415;28;20387;-71
2021/10/17 03:57:31;;;;;;;0.60;0.60;;;;;;;6.75;65.57;100978.22;6294672;28;20470;-71
2021/10/17 04:00:36;;;;;;;0.87;0.80;;;;;;;6.76;65.33;100982.59;6294869;28;20478;-71
2021/10/17 04:03:43;;;;;;;3.03;0.80;;;;;;;6.78;65.89;100983.25;6302064;28;20308;-71
2021/10/17 04:06:48;;;;;;;2.07;0.77;;;;;;;6.73;68.86;100991.09;6285985;28;20206;-71
2021/10/17 04:09:58;;;;;;;1.63;0.70;;;;;;;6.69;65.02;100987.09;6285348;28;20210;-71
2021/10/17 04:13:05;;;;;;;1.90;0.90;;;;;;;6.68;68.03;100988.13;6286086;28;20210;-71
2021/10/17 04:16:11;;;;;;;1.93;0.93;;;;;;;6.69;69.93;100984.38;6285376;28;20226;-71
2021/10/17 04:19:16;;;;;;;1.30;1.30;;;;;;;6.67;68.51;100981.03;6285920;28;20334;-72
2021/10/17 04:22:21;;;;;;;2.87;0.87;;;;;;;6.61;68.17;100984.47;6301776;28;20203;-72
2021/10/17 04:25:25;;;;;;;1.90;0.97;;;;;;;6.55;62.94;100982.53;6285068;28;20203;-71
2021/10/17 04:28:37;;;;;;;1.03;0.93;;;;;;;6.55;63.97;100982.53;6285333;28;20184;-71
2021/10/17 04:31:41;;;;;;;0.80;0.80;;;;;;;6.61;65.85;100982.63;6287006;28;20254;-71
2021/10/17 04:34:46;;;;;;;0.90;0.90;;;;;;;6.68;64.71;100994.38;6287359;28;20194;-71
2021/10/17 04:37:51;;;;;;;0.80;0.80;;;;;;;6.69;68.23;100995.22;6287103;28;20274;-71
2021/10/17 04:40:55;;;;;;;1.40;0.80;;;;;;;6.64;68.66;100986.81;6286740;28;20191;-71
2021/10/17 04:44:02;;;;;;;6.27;0.93;;;;;;;6.54;69.37;100991.69;6285314;28;20503;-71
2021/10/17 04:47:06;;;;;;;0.90;0.90;;;;;;;6.53;68.80;100995.41;6286897;28;20191;-71
2021/10/17 04:50:12;;;;;;;0.90;0.90;;;;;;;6.34;67.94;100996.84;6286859;28;20255;-72
2021/10/17 04:53:16;;;;;;;1.10;0.87;;;;;;;6.39;68.71;100996.25;6287427;28;20195;-72
2021/10/17 04:56:21;;;;;;;0.80;0.80;;;;;;;6.46;64.59;101006.19;6287001;28;20216;-72
2021/10/17 04:59:27;;;;;;;1.83;0.80;;;;;;;6.45;65.77;101003.63;6285951;28;20218;-72
2021/10/17 05:02:35;;;;;;;0.90;0.90;;;;;;;6.38;61.22;101002.69;6293276;28;20238;-72
2021/10/17 05:05:42;;;;;;;0.70;0.70;;;;;;;6.33;62.92;100992.44;6295760;28;20210;-72
2021/10/17 05:08:47;;;;;;;3.53;0.80;;;;;;;6.33;65.31;101000.56;6299249;28;20199;-72
2021/10/17 05:11:52;;;;;;;0.70;0.70;;;;;;;6.26;63.34;101000.47;6299219;28;20206;-72
2021/10/17 05:14:57;;;;;;;0.70;0.70;;;;;;;6.34;63.78;100998.69;6317257;28;20202;-71
2021/10/17 05:18:02;;;;;;;1.47;0.63;;;;;;;6.35;64.34;101003.06;6298344;28;20237;-71
2021/10/17 05:21:06;;;;;;;0.80;0.80;;;;;;;6.39;62.78;100998.97;6298165;28;20520;-71
2021/10/17 05:24:10;;;;;;;3.00;0.83;;;;;;;6.32;61.17;101001.56;6298166;28;20202;-71
2021/10/17 05:27:15;;;;;;;0.90;0.90;;;;;;;6.34;62.61;101012.25;6298149;28;20378;-71
2021/10/17 05:30:21;;;;;;;3.10;0.90;;;;;;;6.30;60.49;101001.78;6297326;28;20270;-71
2021/10/17 05:33:26;;;;;;;0.83;0.80;;;;;;;6.26;62.79;101005.88;6297267;28;20207;-72
2021/10/17 05:36:30;;;;;;;0.70;0.70;;;;;;;6.11;66.27;101013.13;6297200;28;20298;-72
2021/10/17 05:39:36;;;;;;;1.13;0.70;;;;;;;6.16;64.32;101015.31;6298003;28;20241;-72
2021/10/17 05:42:40;;;;;;;0.80;0.80;;;;;;;6.00;64.94;101016.28;6297417;28;20473;-72
2021/10/17 05:45:46;;;;;;;0.80;0.80;;;;;;;5.87;65.36;101005.22;6297780;28;20202;-71
2021/10/17 05:48:51;;;;;;;0.80;0.80;;;;;;;6.03;65.83;101010.50;6296249;28;20224;-71
2021/10/17 05:51:56;;;;;;;1.27;0.80;;;;;;;5.97;65.31;101011.25;6297746;28;20234;-72
2021/10/17 05:55:00;;;;;;;0.80;0.80;;;;;;;6.07;63.94;101028.06;6296889;28;20244;-71
2021/10/17 05:58:04;;;;;;;1.33;0.70;;;;;;;5.94;66.20;101022.44;6296994;28;20551;-72
2021/10/17 06:01:10;;;;;;;0.77;0.77;;;;;;;5.91;65.40;101022.78;6296514;28;20278;-71
2021/10/17 06:04:23;;;;;;;0.80;0.80;;;;;;;5.99;66.25;101032.72;6271753;28;20203;-71
2021/10/17 06:07:38;;;;;;;2.97;0.80;;;;;;;5.73;65.14;101024.94;6272120;28;20213;-72
2021/10/17 06:10:43;;;;;;;0.83;0.83;;;;;;;5.83;65.80;101030.94;6289095;28;20290;-72
2021/10/17 06:13:47;;;;;;;3.43;0.83;;;;;;;5.77;63.67;101031.69;6288467;28;20203;-72
2021/10/17 06:16:53;;;;;;;0.63;0.63;;;;;;;5.88;61.69;101044.00;6287511;28;20231;-72
2021/10/17 06:19:58;;;;;;;0.80;0.80;;;;;;;5.88;62.00;101044.81;6271384;28;20204;-72
2021/10/17 06:23:02;;;;;;;2.00;0.90;;;;;;;5.99;62.03;101047.09;6271156;28;20260;-71
2021/10/17 06:26:07;;;;;;;0.87;0.87;;;;;;;5.91;62.07;101055.28;6270850;28;20284;-71
2021/10/17 06:29:12;;;;;;;2.00;1.07;;;;;;;5.98;64.58;101045.44;6288637;28;20209;-71
2021/10/17 06:32:20;;;;;;;0.70;0.70;;;;;;;6.07;62.50;101049.75;6287551;28;20488;-72
2021/10/17 06:35:24;;;;;;;2.10;1.00;;;;;;;6.07;61.32;101049.75;6270967;28;20277;-72
2021/10/17 06:38:28;;;;;;;0.93;0.80;;;;;;;6.10;62.37;101054.78;6289121;28;20242;-71
2021/10/17 06:41:32;;;;;;;3.40;1.93;;;;;;;6.04;60.31;101054.66;6287019;28;20199;-71
2021/10/17 06:44:44;;;;;;;0.87;0.87;;;;;;;6.14;62.67;101061.53;6270998;28;20270;-72
2021/10/17 06:47:50;;;;;;;1.07;0.67;;;;;;;6.08;61.63;101062.28;6286335;28;20508;-71
2021/10/17 06:50:54;;;;;;;0.80;0.80;;;;;;;6.19;62.64;101064.53;6289563;28;20301;-71
2021/10/17 06:53:58;;;;;;;0.80;0.80;;;;;;;6.20;64.42;101060.81;6270648;28;20242;-71
2021/10/17 06:57:04;;;;;;;1.27;0.97;;;;;;;6.29;63.71;101070.53;6286848;28;20272;-72
2021/10/17 07:00:10;;;;;;;0.90;0.90;;;;;;;6.28;62.48;101079.69;6287846;28;20210;-73
2021/10/17 07:03:21;;;;;;;2.07;0.90;;;;;;;6.30;63.30;101088.47;6287519;28;20239;-72
2021/10/17 07:06:45;;;;;;;4.60;0.80;;;;;;;6.20;65.39;101087.03;6312405;28;20497;-72
2021/10/17 07:09:52;;;;;;;1.50;0.80;;;;;;;6.20;65.40;101093.31;6294992;28;20561;-72
2021/10/17 07:13:16;;;;;;;0.80;0.80;;;;;;;6.19;64.33;101102.44;6313963;28;20203;-72
2021/10/17 07:16:30;;;;;;;0.80;0.80;;;;;;;6.22;63.28;101099.38;6294514;28;20203;-72
2021/10/17 07:19:36;;;;;;;0.80;0.80;;;;;;;6.20;64.61;101101.44;6293999;28;20201;-72
2021/10/17 07:22:42;;;;;;;1.00;0.73;;;;;;;6.08;59.79;101111.03;6294053;28;20230;-72
2021/10/17 07:25:46;;;;;;;2.00;0.80;;;;;;;6.22;60.09;101107.50;6313065;28;20183;-72
2021/10/17 07:28:50;;;;;;;1.50;0.97;;;;;;;6.23;62.27;101106.50;6311635;28;20472;-72
2021/10/17 07:31:54;;;;;;;0.90;0.90;;;;;;;6.33;62.51;101114.38;6311192;28;20209;-72
2021/10/17 07:35:00;;;;;;;0.80;0.80;;;;;;;6.29;63.84;101113.88;6313012;28;20183;-72
2021/10/17 07:38:11;;;;;;;2.67;1.00;;;;;;;6.37;64.28;101117.56;6294623;28;20245;-71
2021/10/17 07:41:16;;;;;;;1.67;1.00;;;;;;;6.34;64.64;101112.50;6310701;28;20223;-72
2021/10/17 07:44:20;;;;;;;1.00;1.00;;;;;;;6.32;66.15;101118.94;6294667;28;20287;-72
2021/10/17 07:47:48;;;;;;;1.33;0.90;;;;;;;6.37;67.97;101114.84;6301325;28;20503;-72
2021/10/17 07:50:54;;;;;;;2.60;1.17;;;;;;;6.37;66.32;101120.28;6312599;28;20183;-72
2021/10/17 07:54:01;;;;;;;0.97;0.93;;;;;;;6.29;68.17;101124.72;6294113;28;20570;-72
2021/10/17 07:57:13;;;;;;;1.83;1.00;;;;;;;6.36;65.79;101119.44;6293824;28;20569;-72
2021/10/17 08:00:19;;;;;;;4.00;1.07;;;;;;;6.34;63.94;101120.63;6293988;28;20489;-72
2021/10/17 08:03:43;;;;;;;1.83;1.20;;;;;;;6.32;62.33;101118.09;6312409;28;20306;-72
2021/10/17 08:07:12;;;;;;;1.23;1.17;;;;;;;6.41;61.26;101121.59;6311766;28;20309;-72
2021/10/17 08:10:16;;;;;;;1.30;1.20;;;;;;;6.48;60.69;101123.38;6310971;28;20474;-72
2021/10/17 08:13:22;;;;;;;1.10;1.10;;;;;;;6.43;61.11;101114.09;6294016;28;20202;-72
2021/10/17 08:16:31;;;;;;;1.03;0.93;;;;;;;6.57;60.94;101121.44;6294054;28;20202;-73
2021/10/17 08:19:36;;;;;;;1.17;1.00;;;;;;;6.58;62.52;101128.53;6294034;28;20222;-71
2021/10/17 08:22:44;;;;;;;1.10;1.00;;;;;;;6.63;62.05;101120.69;6293234;28;20279;-75
2021/10/17 08:25:48;;;;;;;0.83;0.83;;;;;;;6.53;60.67;101130.94;6293202;28;20210;-73
2021/10/17 08:28:54;;;;;;;0.90;0.90;;;;;;;6.48;56.07;101130.66;6310847;28;20270;-71
2021/10/17 08:32:03;;;;;;;1.23;1.00;;;;;;;6.55;56.50;101128.91;6293044;28;20208;-72
2021/10/17 08:35:15;;;;;;;0.83;0.83;;;;;;;6.68;56.60;101129.94;6293941;28;20552;-72
2021/10/17 08:38:23;;;;;;;0.90;0.80;;;;;;;6.68;56.74;101131.81;6309703;28;20289;-72
2021/10/17 08:41:28;;;;;;;3.70;0.80;;;;;;;6.71;56.37;101123.31;6313119;28;20247;-72
2021/10/17 08:44:45;;;;;;;2.40;0.80;;;;;;;6.72;57.10;101125.00;6298425;28;20203;-72
2021/10/17 08:47:53;;;;;;;0.90;0.90;;;;;;;6.79;57.95;101125.94;6298375;28;20228;-71
2021/10/17 08:50:58;;;;;;;1.70;0.80;;;;;;;6.82;59.05;101133.72;6316577;28;20194;-71
2021/10/17 08:54:15;;;;;;;0.70;0.70;;;;;;;6.84;57.68;101128.94;6315650;28;20203;-72
2021/10/17 08:57:28;;;;;;;1.60;0.90;;;;;;;6.95;56.94;101131.22;6298849;28;20217;-73
2021/10/17 09:00:35;;;;;;;0.70;0.70;;;;;;;6.97;57.34;101131.00;6298183;28;20198;-73
2021/10/17 09:03:53;;;;;;;1.90;1.00;;;;;;;6.98;56.36;101136.28;6305376;28;20224;-72
2021/10/17 09:07:17;;;;;;;0.70;0.70;;;;;;;7.07;55.77;101127.00;6289353;28;20474;-72
2021/10/17 09:10:43;;;;;;;1.03;0.83;;;;;;;7.01;54.68;101135.06;6290673;28;20455;-72
2021/10/17 09:14:03;;;;;;;0.70;0.70;;;;;;;7.03;55.21;101133.84;6291314;28;20191;-72
2021/10/17 09:17:08;;;;;;;1.60;1.00;;;;;;;7.00;55.83;101139.63;6290248;28;20501;-73
2021/10/17 09:20:15;;;;;;;0.97;0.97;;;;;;;7.02;54.16;101137.56;6291033;28;20541;-72
2021/10/17 09:23:36;;;;;;;1.73;0.70;;;;;;;7.09;54.70;101143.91;6291324;28;20184;-72
2021/10/17 09:27:09;;;;;;;0.80;0.80;;;;;;;7.10;54.10;101140.19;6289877;28;20354;-72
2021/10/17 09:30:17;;;;;;;1.17;0.60;;;;;;;7.19;55.67;101138.22;6291185;28;20223;-72
2021/10/17 09:33:22;;;;;;;2.40;0.80;;;;;;;7.21;55.74;101142.44;6289846;28;20185;-72
2021/10/17 09:36:31;;;;;;;1.67;0.77;;;;;;;7.17;54.33;101141.13;6291119;28;20184;-72
2021/10/17 09:39:45;;;;;;;1.80;0.73;;;;;;;7.30;52.54;101135.88;6289730;28;20518;-73
2021/10/17 09:43:23;;;;;;;0.73;0.73;;;;;;;7.34;52.66;101142.63;6282170;28;20200;-72
2021/10/17 09:46:57;;;;;;;3.13;0.70;;;;;;;7.40;51.60;101141.84;6288365;28;20234;-72
2021/10/17 09:50:12;;;;;;;0.90;0.90;;;;;;;7.44;53.25;101143.19;6290747;28;20196;-72
2021/10/17 09:53:16;;;;;;;1.33;1.00;;;;;;;7.49;55.00;101139.88;6290005;28;20188;-72
2021/10/17 09:56:40;;;;;;;0.60;0.60;;;;;;;7.43;54.78;101144.19;6289989;28;20184;-72
2021/10/17 09:59:46;;;;;;;0.80;0.80;;;;;;;7.48;54.18;101138.19;6289798;28;20285;-72
2021/10/17 10:02:52;;;;;;;0.67;0.67;;;;;;;7.51;53.23;101154.94;6303366;28;20299;-73
2021/10/17 10:05:58;;;;;;;0.90;0.90;;;;;;;7.51;53.59;101138.66;6312813;28;20202;-72
2021/10/17 10:09:04;;;;;;;1.07;0.80;;;;;;;7.57;52.71;101154.16;6314948;28;20191;-73
2021/10/17 10:12:11;;;;;;;2.33;0.90;;;;;;;7.75;52.38;101152.94;6314736;28;20221;-72
2021/10/17 10:15:17;;;;;;;0.80;0.80;;;;;;;7.68;53.17;101150.13;6313629;28;20206;-72
2021/10/17 10:18:23;;;;;;;0.90;0.90;;;;;;;7.63;51.75;101146.34;6313506;28;20378;-72
2021/10/17 10:21:28;;;;;;;0.90;0.90;;;;;;;7.73;52.71;101146.88;6314730;28;20188;-71
2021/10/17 10:24:32;;;;;;;0.75;0.70;;;;;;;7.77;51.67;101150.88;6314462;28;20183;-72
2021/10/17 10:27:38;;;;;;;0.70;0.70;;;;;;;7.78;53.32;101147.94;6313755;28;20451;-71
2021/10/17 10:30:44;;;;;;;0.80;0.80;;;;;;;7.71;53.26;101133.47;6314198;28;20192;-71
2021/10/17 10:33:48;;;;;;;0.70;0.70;;;;;;;7.94;52.20;101141.44;6313032;28;20183;-71
2021/10/17 10:36:54;;;;;;;0.70;0.70;;;;;;;7.95;51.62;101151.28;6314449;28;20184;-72
2021/10/17 10:40:15;;;;;;;0.73;0.73;;;;;;;7.93;50.61;101137.91;6313626;28;20239;-72
2021/10/17 10:43:34;;;;;;;1.55;0.80;;;;;;;7.98;50.13;101134.59;6312605;28;20457;-72
2021/10/17 10:46:40;;;;;;;0.70;0.70;;;;;;;7.91;49.74;101133.69;6312805;28;20184;-71
2021/10/17 10:49:47;;;;;;;0.93;0.90;;;;;;;7.98;50.37;101145.47;6314079;28;20187;-71
2021/10/17 10:52:52;;;;;;;1.90;0.70;;;;;;;8.05;50.81;101141.78;6313904;28;20298;-73
2021/10/17 10:55:56;;;;;;;0.60;0.60;;;;;;;8.12;50.39;101141.84;6313803;28;20186;-72
2021/10/17 10:59:00;;;;;;;3.58;0.80;;;;;;;8.10;50.70;101143.94;6313206;28;20215;-73
2021/10/17 11:02:14;;;;;;;5.47;2.65;;;;;;;8.14;51.17;101142.50;6313097;28;20231;-73
2021/10/17 11:05:18;;;;;;;15.05;7.82;;;;;;;8.12;51.82;101130.97;6312152;28;20247;-71
2021/10/17 11:08:23;;;;;;;4.43;4.03;;;;;;;8.17;51.53;101134.81;6313419;28;20190;-73
2021/10/17 11:11:38;;;;;;;9.23;7.20;;;;;;;8.25;50.29;101131.09;6312274;28;20219;-71
2021/10/17 11:14:42;;;;;;;6.97;5.60;;;;;;;8.20;50.44;101139.84;6312478;28;20190;-72
2021/10/17 11:17:52;;;;;;;2.53;2.42;;;;;;;8.10;49.30;101143.94;6313340;28;20191;-72
2021/10/17 11:20:56;;;;;;;1.58;1.55;;;;;;;8.19;50.21;101146.31;6312855;28;20286;-72
2021/10/17 11:24:01;;;;;;;9.18;6.80;;;;;;;8.21;50.33;101159.72;6312190;28;20498;-72
2021/10/17 11:27:10;;;;;;;7.43;5.97;;;;;;;8.32;50.59;101142.09;6313263;28;20191;-72
2021/10/17 11:30:22;;;;;;;6.88;2.50;;;;;;;8.36;50.99;101157.81;6312765;28;20187;-72
2021/10/17 11:33:27;;;;;;;2.67;1.08;;;;;;;8.29;51.60;101154.19;6311662;28;20486;-72
2021/10/17 11:36:32;;;;;;;4.10;0.90;;;;;;;8.29;50.96;101154.19;6311685;28;20276;-72
2021/10/17 11:39:57;;;;;;;1.55;0.80;;;;;;;8.43;50.61;101145.13;6312704;28;20243;-72
2021/10/17 11:43:05;;;;;;;0.65;0.65;;;;;;;8.43;51.19;101150.56;6311598;28;20220;-72
2021/10/17 11:46:12;;;;;;;1.95;0.85;;;;;;;8.37;52.62;101145.88;6312391;28;20215;-72
2021/10/17 11:49:21;;;;;;;6.97;0.88;;;;;;;8.51;51.44;101136.81;6311308;28;20502;-72
2021/10/17 11:52:26;;;;;;;1.02;1.02;;;;;;;8.48;50.18;101134.50;6312583;28;20183;-72
2021/10/17 11:55:33;;;;;;;5.28;0.80;;;;;;;8.44;50.70;101140.53;6294453;28;20230;-72
2021/10/17 11:58:38;;;;;;;2.33;0.88;;;;;;;8.54;49.94;101141.88;6312520;28;20221;-72
2021/10/17 12:01:42;;;;;;;1.17;0.88;;;;;;;8.46;50.22;101130.28;6311182;28;20239;-72
2021/10/17 12:04:48;;;;;;;2.90;0.70;;;;;;;8.55;50.30;101138.09;6311040;28;20378;-73
2021/10/17 12:07:55;;;;;;;0.60;0.60;;;;;;;8.43;52.77;101134.25;6312316;28;20246;-72
2021/10/17 12:11:01;;;;;;;1.00;1.00;;;;;;;8.51;51.00;101134.09;6312222;28;20187;-72
2021/10/17 12:14:28;;;;;;;0.70;0.70;;;;;;;8.60;51.00;101134.81;6293962;28;20212;-72
2021/10/17 12:17:32;;;;;;;4.25;0.98;;;;;;;8.47;48.25;101130.09;6311967;28;20309;-72
2021/10/17 12:20:38;;;;;;;1.58;0.85;;;;;;;8.61;49.60;101131.88;6310735;28;20211;-72
2021/10/17 12:23:45;;;;;;;2.80;0.98;;;;;;;8.72;49.94;101122.34;6309757;28;20268;-72
2021/10/17 12:26:58;;;;;;;2.25;0.82;;;;;;;8.75;48.62;101122.81;6294165;28;20203;-71
2021/10/17 12:30:08;;;;;;;1.65;0.95;;;;;;;8.73;47.69;101130.28;6310801;28;20382;-72
2021/10/17 12:33:24;;;;;;;1.17;0.63;;;;;;;8.71;48.93;101126.94;6311968;28;20260;-72
2021/10/17 12:36:30;;;;;;;0.70;0.70;;;;;;;8.68;48.54;101138.22;6310707;28;20501;-72
2021/10/17 12:39:34;;;;;;;0.85;0.80;;;;;;;8.63;49.58;101135.25;6309943;28;20270;-72
2021/10/17 12:42:46;;;;;;;1.45;0.80;;;;;;;8.70;48.95;101135.31;6310685;28;20483;-72
2021/10/17 12:45:50;;;;;;;0.85;0.85;;;;;;;8.67;48.58;101125.66;6310827;28;20278;-72
2021/10/17 12:48:55;;;;;;;3.63;1.30;;;;;;;8.76;48.63;101127.19;6310782;28;20222;-73
2021/10/17 12:52:00;;;;;;;5.78;1.40;;;;;;;8.72;48.53;101134.06;6311372;28;20187;-72
2021/10/17 12:55:06;;;;;;;3.45;1.45;;;;;;;8.64;50.28;101120.63;6311511;28;20188;-72
2021/10/17 12:58:14;;;;;;;4.68;1.25;;;;;;;8.73;50.05;101127.56;6311889;28;20215;-72
2021/10/17 13:01:20;;;;;;;1.23;1.13;;;;;;;8.81;50.13;101121.13;6310622;28;20408;-72
2021/10/17 13:04:37;;;;;;;2.20;1.55;;;;;;;8.69;49.58;101134.47;6311607;28;20184;-72
2021/10/17 13:07:43;;;;;;;1.00;1.00;;;;;;;8.77;50.31;101134.31;6311464;28;20267;-72
2021/10/17 13:10:47;;;;;;;0.95;0.95;;;;;;;8.83;50.14;101130.78;6310650;28;20188;-73
2021/10/17 13:13:52;;;;;;;0.75;0.75;;;;;;;8.83;50.00;101129.97;6310498;28;20550;-72
2021/10/17 13:16:56;;;;;;;0.82;0.82;;;;;;;8.77;49.14;101131.59;6310941;28;20184;-72
2021/10/17 13:20:02;;;;;;;2.17;0.80;;;;;;;8.78;50.04;101144.13;6310580;28;20192;-72
2021/10/17 13:23:12;;;;;;;3.20;0.70;;;;;;;8.65;50.98;101135.06;6310295;28;20261;-72
2021/10/17 13:26:16;;;;;;;0.80;0.80;;;;;;;8.78;50.73;101144.13;6312579;28;20183;-73
2021/10/17 13:29:20;;;;;;;1.45;0.88;;;;;;;8.80;49.32;101146.69;6314933;28;20215;-73
2021/10/17 13:32:27;;;;;;;0.80;0.70;;;;;;;8.83;49.06;101138.94;6314770;28;20195;-73
2021/10/17 13:35:33;;;;;;;0.70;0.70;;;;;;;8.80;49.76;101142.09;6315922;28;20190;-71
2021/10/17 13:38:39;;;;;;;1.25;0.80;;;;;;;8.87;50.81;101135.84;6315874;28;20191;-71
2021/10/17 13:41:43;;;;;;;3.50;0.70;;;;;;;8.89;50.13;101145.47;6315425;28;20211;-72
2021/10/17 13:44:48;;;;;;;0.80;0.80;;;;;;;8.88;49.62;101151.97;6316009;28;20229;-72
2021/10/17 13:47:53;;;;;;;2.72;0.63;;;;;;;8.87;49.76;101135.84;6315233;28;20183;-72
2021/10/17 13:50:57;;;;;;;0.85;0.65;;;;;;;8.89;50.28;101134.59;6315608;28;20195;-72
2021/10/17 13:54:04;;;;;;;0.80;0.80;;;;;;;8.86;49.56;101139.63;6314212;28;20376;-72
2021/10/17 13:57:10;;;;;;;0.90;0.90;;;;;;;8.88;49.17;101142.97;6314448;28;20215;-72
2021/10/17 14:00:20;;;;;;;1.48;0.90;;;;;;;8.87;49.38;101147.56;6314994;28;20262;-72
2021/10/17 14:03:24;;;;;;;0.68;0.68;;;;;;;8.86;49.04;101143.16;6314464;28;20276;-72
2021/10/17 14:06:28;;;;;;;0.82;0.82;;;;;;;8.89;48.96;101142.75;6313941;28;20453;-72
2021/10/17 14:09:33;;;;;;;0.60;0.60;;;;;;;8.89;49.07;101147.34;6313857;28;20237;-72
2021/10/17 14:12:38;;;;;;;0.75;0.75;;;;;;;8.91;49.91;101137.13;6314772;28;20219;-72
2021/10/17 14:15:44;;;;;;;0.85;0.85;;;;;;;8.83;49.87;101141.66;6314773;28;20407;-73
2021/10/17 14:18:48;;;;;;;0.70;0.70;;;;;;;8.97;49.72;101147.22;6315007;28;20184;-72
2021/10/17 14:21:54;;;;;;;0.55;0.55;;;;;;;8.93;49.86;101140.50;6314262;28;20211;-72
2021/10/17 14:24:59;;;;;;;1.00;1.00;;;;;;;8.88;49.59;101159.28;6314361;28;20194;-72
2021/10/17 14:28:04;;;;;;;0.63;0.63;;;;;;;8.78;49.82;101160.47;6314732;28;20190;-72
2021/10/17 14:31:08;;;;;;;0.75;0.70;;;;;;;8.83;51.61;101168.06;6313814;28;20187;-73
2021/10/17 14:34:13;;;;;;;0.88;0.88;;;;;;;8.83;51.24;101168.88;6313244;28;20215;-72
2021/10/17 14:37:17;;;;;;;0.68;0.68;;;;;;;8.66;51.79;101167.50;6313067;28;20250;-72
2021/10/17 14:40:22;;;;;;;0.70;0.70;;;;;;;8.81;50.12;101170.13;6313093;28;20191;-72
2021/10/17 14:43:27;;;;;;;0.60;0.60;;;;;;;8.75;50.35;101174.50;6314179;28;20211;-72